ADDS TAF Data INFO
IDs: Format: Raw Decoded Include METARs

Data at: 0414 UTC 21 Jan 2018

KBCE 210353Z AUTO 30015KT 10SM SCT031 BKN110 M08/M09 A2979 RMK AO2 SLP075 T10781094

KBCE 210115Z 2101/2124 31015G23KT P6SM VCSH SCT015 BKN035
  FM211600 32013G20KT P6SM SCT040